sensor_id;sensor_type;location;lat;lon;timestamp;P1;durP1;ratioP1;P2;durP2;ratioP2
19543;SDS011;9917;51.256;7.152;2023-08-06T00:01:52;8.18;;;2.55;;
19543;SDS011;9917;51.256;7.152;2023-08-06T00:04:18;4.32;;;2.03;;
19543;SDS011;9917;51.256;7.152;2023-08-06T00:06:46;4.13;;;2.22;;
19543;SDS011;9917;51.256;7.152;2023-08-06T00:09:11;3.47;;;2.20;;
19543;SDS011;9917;51.256;7.152;2023-08-06T00:11:37;4.07;;;2.15;;
19543;SDS011;9917;51.256;7.152;2023-08-06T00:14:03;3.13;;;2.17;;
19543;SDS011;9917;51.256;7.152;2023-08-06T00:16:29;2.88;;;1.80;;
19543;SDS011;9917;51.256;7.152;2023-08-06T00:18:55;4.13;;;2.15;;
19543;SDS011;9917;51.256;7.152;2023-08-06T00:21:21;3.78;;;2.35;;
19543;SDS011;9917;51.256;7.152;2023-08-06T00:23:48;4.20;;;2.20;;
19543;SDS011;9917;51.256;7.152;2023-08-06T00:26:14;4.95;;;2.20;;
19543;SDS011;9917;51.256;7.152;2023-08-06T00:28:40;4.60;;;2.17;;
19543;SDS011;9917;51.256;7.152;2023-08-06T00:31:06;4.05;;;2.08;;
19543;SDS011;9917;51.256;7.152;2023-08-06T00:33:32;4.55;;;2.30;;
19543;SDS011;9917;51.256;7.152;2023-08-06T00:35:58;4.80;;;2.22;;
19543;SDS011;9917;51.256;7.152;2023-08-06T00:38:24;4.15;;;2.38;;
19543;SDS011;9917;51.256;7.152;2023-08-06T00:40:51;5.00;;;2.42;;
19543;SDS011;9917;51.256;7.152;2023-08-06T00:43:17;4.15;;;2.40;;
19543;SDS011;9917;51.256;7.152;2023-08-06T00:45:42;4.25;;;1.85;;
19543;SDS011;9917;51.256;7.152;2023-08-06T00:48:08;3.70;;;2.28;;
19543;SDS011;9917;51.256;7.152;2023-08-06T00:50:34;4.55;;;2.53;;
19543;SDS011;9917;51.256;7.152;2023-08-06T00:53:00;4.93;;;2.08;;
19543;SDS011;9917;51.256;7.152;2023-08-06T00:55:26;4.95;;;2.28;;
19543;SDS011;9917;51.256;7.152;2023-08-06T00:57:54;4.88;;;2.30;;
19543;SDS011;9917;51.256;7.152;2023-08-06T01:00:20;4.43;;;2.10;;
19543;SDS011;9917;51.256;7.152;2023-08-06T01:02:48;4.63;;;2.40;;
19543;SDS011;9917;51.256;7.152;2023-08-06T01:05:14;5.18;;;2.38;;
19543;SDS011;9917;51.256;7.152;2023-08-06T01:07:41;6.90;;;2.53;;
19543;SDS011;9917;51.256;7.152;2023-08-06T01:10:19;3.25;;;2.08;;
19543;SDS011;9917;51.256;7.152;2023-08-06T01:12:55;5.88;;;2.53;;
19543;SDS011;9917;51.256;7.152;2023-08-06T01:15:28;3.08;;;2.35;;
19543;SDS011;9917;51.256;7.152;2023-08-06T01:17:57;4.32;;;2.83;;
19543;SDS011;9917;51.256;7.152;2023-08-06T01:20:28;5.40;;;2.78;;
19543;SDS011;9917;51.256;7.152;2023-08-06T01:22:54;4.07;;;2.40;;
19543;SDS011;9917;51.256;7.152;2023-08-06T01:25:20;3.45;;;2.40;;
19543;SDS011;9917;51.256;7.152;2023-08-06T01:27:47;6.07;;;2.17;;
19543;SDS011;9917;51.256;7.152;2023-08-06T01:30:15;4.65;;;3.00;;
19543;SDS011;9917;51.256;7.152;2023-08-06T01:32:46;4.13;;;2.40;;
19543;SDS011;9917;51.256;7.152;2023-08-06T01:35:15;10.63;;;3.17;;
19543;SDS011;9917;51.256;7.152;2023-08-06T01:37:43;4.05;;;2.33;;
19543;SDS011;9917;51.256;7.152;2023-08-06T01:40:10;4.55;;;2.75;;
19543;SDS011;9917;51.256;7.152;2023-08-06T01:42:37;5.90;;;2.67;;
19543;SDS011;9917;51.256;7.152;2023-08-06T01:45:03;3.67;;;2.42;;
19543;SDS011;9917;51.256;7.152;2023-08-06T01:47:29;3.50;;;2.40;;
19543;SDS011;9917;51.256;7.152;2023-08-06T01:49:55;4.55;;;2.50;;
19543;SDS011;9917;51.256;7.152;2023-08-06T01:52:21;5.30;;;2.70;;
19543;SDS011;9917;51.256;7.152;2023-08-06T01:54:49;4.18;;;2.47;;
19543;SDS011;9917;51.256;7.152;2023-08-06T01:57:14;6.00;;;2.60;;
19543;SDS011;9917;51.256;7.152;2023-08-06T01:59:40;3.97;;;2.70;;
19543;SDS011;9917;51.256;7.152;2023-08-06T02:02:06;4.10;;;2.20;;
19543;SDS011;9917;51.256;7.152;2023-08-06T02:04:32;4.45;;;2.55;;
19543;SDS011;9917;51.256;7.152;2023-08-06T02:06:58;5.63;;;2.70;;
19543;SDS011;9917;51.256;7.152;2023-08-06T02:09:24;4.28;;;2.45;;
19543;SDS011;9917;51.256;7.152;2023-08-06T02:11:51;8.55;;;2.53;;
19543;SDS011;9917;51.256;7.152;2023-08-06T02:14:16;4.03;;;2.20;;
19543;SDS011;9917;51.256;7.152;2023-08-06T02:16:42;5.30;;;2.67;;
19543;SDS011;9917;51.256;7.152;2023-08-06T02:19:08;4.65;;;2.40;;
19543;SDS011;9917;51.256;7.152;2023-08-06T02:21:34;3.88;;;2.35;;
19543;SDS011;9917;51.256;7.152;2023-08-06T02:24:00;4.13;;;2.13;;
19543;SDS011;9917;51.256;7.152;2023-08-06T02:26:26;3.65;;;2.03;;
19543;SDS011;9917;51.256;7.152;2023-08-06T02:28:53;4.32;;;2.35;;
19543;SDS011;9917;51.256;7.152;2023-08-06T02:31:19;7.38;;;2.90;;
19543;SDS011;9917;51.256;7.152;2023-08-06T02:33:45;4.35;;;2.15;;
19543;SDS011;9917;51.256;7.152;2023-08-06T02:36:11;3.00;;;2.10;;
19543;SDS011;9917;51.256;7.152;2023-08-06T02:38:37;5.30;;;1.92;;
19543;SDS011;9917;51.256;7.152;2023-08-06T02:41:03;4.07;;;2.22;;
19543;SDS011;9917;51.256;7.152;2023-08-06T02:43:29;4.13;;;2.30;;
19543;SDS011;9917;51.256;7.152;2023-08-06T02:45:57;4.90;;;1.98;;
19543;SDS011;9917;51.256;7.152;2023-08-06T02:48:24;3.45;;;1.98;;
19543;SDS011;9917;51.256;7.152;2023-08-06T02:50:49;4.15;;;2.22;;
19543;SDS011;9917;51.256;7.152;2023-08-06T02:53:15;4.63;;;2.00;;
19543;SDS011;9917;51.256;7.152;2023-08-06T02:55:44;3.72;;;2.45;;
19543;SDS011;9917;51.256;7.152;2023-08-06T02:58:11;3.63;;;2.00;;
19543;SDS011;9917;51.256;7.152;2023-08-06T03:00:36;4.82;;;2.28;;
19543;SDS011;9917;51.256;7.152;2023-08-06T03:03:04;5.07;;;2.33;;
19543;SDS011;9917;51.256;7.152;2023-08-06T03:05:29;3.70;;;2.10;;
19543;SDS011;9917;51.256;7.152;2023-08-06T03:07:55;4.03;;;1.70;;
19543;SDS011;9917;51.256;7.152;2023-08-06T03:10:21;2.70;;;1.75;;
19543;SDS011;9917;51.256;7.152;2023-08-06T03:12:47;3.15;;;2.05;;
19543;SDS011;9917;51.256;7.152;2023-08-06T03:15:13;3.15;;;2.03;;
19543;SDS011;9917;51.256;7.152;2023-08-06T03:17:39;3.55;;;2.08;;
19543;SDS011;9917;51.256;7.152;2023-08-06T03:20:07;4.32;;;1.92;;
19543;SDS011;9917;51.256;7.152;2023-08-06T03:22:33;4.50;;;1.95;;
19543;SDS011;9917;51.256;7.152;2023-08-06T03:24:59;4.25;;;2.13;;
19543;SDS011;9917;51.256;7.152;2023-08-06T03:27:24;4.05;;;2.05;;
19543;SDS011;9917;51.256;7.152;2023-08-06T03:29:50;2.65;;;1.83;;
19543;SDS011;9917;51.256;7.152;2023-08-06T03:32:16;3.65;;;2.30;;
19543;SDS011;9917;51.256;7.152;2023-08-06T03:34:42;6.20;;;2.35;;
19543;SDS011;9917;51.256;7.152;2023-08-06T03:37:10;3.17;;;2.08;;
19543;SDS011;9917;51.256;7.152;2023-08-06T03:39:35;2.53;;;1.75;;
19543;SDS011;9917;51.256;7.152;2023-08-06T03:42:01;4.72;;;2.17;;
19543;SDS011;9917;51.256;7.152;2023-08-06T03:44:27;2.70;;;2.03;;
19543;SDS011;9917;51.256;7.152;2023-08-06T03:46:53;5.57;;;2.25;;
19543;SDS011;9917;51.256;7.152;2023-08-06T03:49:19;4.72;;;1.92;;
19543;SDS011;9917;51.256;7.152;2023-08-06T03:51:45;3.80;;;2.15;;
19543;SDS011;9917;51.256;7.152;2023-08-06T03:54:12;7.00;;;2.25;;
19543;SDS011;9917;51.256;7.152;2023-08-06T03:56:38;5.75;;;1.80;;
19543;SDS011;9917;51.256;7.152;2023-08-06T03:59:04;3.78;;;1.90;;
19543;SDS011;9917;51.256;7.152;2023-08-06T04:01:30;5.30;;;2.28;;
19543;SDS011;9917;51.256;7.152;2023-08-06T04:03:56;4.00;;;2.20;;
19543;SDS011;9917;51.256;7.152;2023-08-06T04:06:21;4.90;;;2.15;;
19543;SDS011;9917;51.256;7.152;2023-08-06T04:08:47;3.28;;;2.10;;
19543;SDS011;9917;51.256;7.152;2023-08-06T04:11:15;6.80;;;2.25;;
19543;SDS011;9917;51.256;7.152;2023-08-06T04:13:42;4.85;;;2.08;;
19543;SDS011;9917;51.256;7.152;2023-08-06T04:16:07;3.30;;;2.03;;
19543;SDS011;9917;51.256;7.152;2023-08-06T04:18:33;3.83;;;2.03;;
19543;SDS011;9917;51.256;7.152;2023-08-06T04:20:59;3.65;;;2.28;;
19543;SDS011;9917;51.256;7.152;2023-08-06T04:23:26;3.78;;;2.38;;
19543;SDS011;9917;51.256;7.152;2023-08-06T04:25:55;3.53;;;2.10;;
19543;SDS011;9917;51.256;7.152;2023-08-06T04:28:23;4.53;;;2.17;;
19543;SDS011;9917;51.256;7.152;2023-08-06T04:30:48;4.00;;;2.35;;
19543;SDS011;9917;51.256;7.152;2023-08-06T04:33:14;3.55;;;2.00;;
19543;SDS011;9917;51.256;7.152;2023-08-06T04:35:40;3.65;;;1.73;;
19543;SDS011;9917;51.256;7.152;2023-08-06T04:38:06;2.58;;;1.77;;
19543;SDS011;9917;51.256;7.152;2023-08-06T04:40:32;4.78;;;1.95;;
19543;SDS011;9917;51.256;7.152;2023-08-06T04:42:58;3.47;;;2.20;;
19543;SDS011;9917;51.256;7.152;2023-08-06T04:45:26;3.42;;;2.00;;
19543;SDS011;9917;51.256;7.152;2023-08-06T04:47:51;4.20;;;2.30;;
19543;SDS011;9917;51.256;7.152;2023-08-06T04:50:17;4.18;;;2.00;;
19543;SDS011;9917;51.256;7.152;2023-08-06T04:52:44;8.57;;;2.25;;
19543;SDS011;9917;51.256;7.152;2023-08-06T04:55:10;4.20;;;2.17;;
19543;SDS011;9917;51.256;7.152;2023-08-06T04:57:36;4.88;;;2.17;;
19543;SDS011;9917;51.256;7.152;2023-08-06T05:00:02;4.93;;;2.38;;
19543;SDS011;9917;51.256;7.152;2023-08-06T05:02:30;5.25;;;2.53;;
19543;SDS011;9917;51.256;7.152;2023-08-06T05:04:55;4.45;;;2.13;;
19543;SDS011;9917;51.256;7.152;2023-08-06T05:07:21;4.72;;;1.80;;
19543;SDS011;9917;51.256;7.152;2023-08-06T05:09:47;6.22;;;1.90;;
19543;SDS011;9917;51.256;7.152;2023-08-06T05:12:13;4.45;;;2.17;;
19543;SDS011;9917;51.256;7.152;2023-08-06T05:14:39;3.70;;;2.00;;
19543;SDS011;9917;51.256;7.152;2023-08-06T05:17:05;4.20;;;2.00;;
19543;SDS011;9917;51.256;7.152;2023-08-06T05:19:32;3.08;;;1.83;;
19543;SDS011;9917;51.256;7.152;2023-08-06T05:21:58;3.72;;;1.83;;
19543;SDS011;9917;51.256;7.152;2023-08-06T05:24:24;2.55;;;1.75;;
19543;SDS011;9917;51.256;7.152;2023-08-06T05:26:49;3.65;;;1.98;;
19543;SDS011;9917;51.256;7.152;2023-08-06T05:29:16;5.82;;;2.17;;
19543;SDS011;9917;51.256;7.152;2023-08-06T05:31:41;6.05;;;1.95;;
19543;SDS011;9917;51.256;7.152;2023-08-06T05:34:07;4.88;;;2.25;;
19543;SDS011;9917;51.256;7.152;2023-08-06T05:36:35;1.88;;;1.30;;
19543;SDS011;9917;51.256;7.152;2023-08-06T05:39:00;3.80;;;1.90;;
19543;SDS011;9917;51.256;7.152;2023-08-06T05:41:26;3.67;;;1.58;;
19543;SDS011;9917;51.256;7.152;2023-08-06T05:43:52;4.38;;;1.92;;
19543;SDS011;9917;51.256;7.152;2023-08-06T05:46:18;2.90;;;1.25;;
19543;SDS011;9917;51.256;7.152;2023-08-06T05:48:44;2.92;;;1.50;;
19543;SDS011;9917;51.256;7.152;2023-08-06T05:51:10;2.55;;;1.50;;
19543;SDS011;9917;51.256;7.152;2023-08-06T05:53:37;5.10;;;1.55;;
19543;SDS011;9917;51.256;7.152;2023-08-06T05:56:03;3.67;;;1.40;;
19543;SDS011;9917;51.256;7.152;2023-08-06T05:58:29;2.28;;;1.40;;
19543;SDS011;9917;51.256;7.152;2023-08-06T06:00:55;4.25;;;1.23;;
19543;SDS011;9917;51.256;7.152;2023-08-06T06:03:21;2.78;;;1.50;;
19543;SDS011;9917;51.256;7.152;2023-08-06T06:05:47;4.20;;;0.88;;
19543;SDS011;9917;51.256;7.152;2023-08-06T06:08:12;3.85;;;1.27;;
19543;SDS011;9917;51.256;7.152;2023-08-06T06:10:40;3.60;;;0.93;;
19543;SDS011;9917;51.256;7.152;2023-08-06T06:13:06;2.53;;;0.90;;
19543;SDS011;9917;51.256;7.152;2023-08-06T06:15:32;3.47;;;1.10;;
19543;SDS011;9917;51.256;7.152;2023-08-06T06:17:58;2.50;;;1.17;;
19543;SDS011;9917;51.256;7.152;2023-08-06T06:20:24;2.45;;;1.02;;
19543;SDS011;9917;51.256;7.152;2023-08-06T06:22:49;2.17;;;0.80;;
19543;SDS011;9917;51.256;7.152;2023-08-06T06:25:15;1.85;;;0.90;;
19543;SDS011;9917;51.256;7.152;2023-08-06T06:27:43;2.65;;;0.93;;
19543;SDS011;9917;51.256;7.152;2023-08-06T06:30:09;3.35;;;1.17;;
19543;SDS011;9917;51.256;7.152;2023-08-06T06:32:35;1.85;;;0.88;;
19543;SDS011;9917;51.256;7.152;2023-08-06T06:35:01;3.17;;;0.75;;
19543;SDS011;9917;51.256;7.152;2023-08-06T06:37:27;2.35;;;0.85;;
19543;SDS011;9917;51.256;7.152;2023-08-06T06:39:53;3.42;;;1.33;;
19543;SDS011;9917;51.256;7.152;2023-08-06T06:42:19;2.05;;;1.00;;
19543;SDS011;9917;51.256;7.152;2023-08-06T06:44:46;8.55;;;1.40;;
19543;SDS011;9917;51.256;7.152;2023-08-06T06:47:12;1.45;;;0.70;;
19543;SDS011;9917;51.256;7.152;2023-08-06T06:49:38;3.22;;;1.58;;
19543;SDS011;9917;51.256;7.152;2023-08-06T06:52:04;1.80;;;0.90;;
19543;SDS011;9917;51.256;7.152;2023-08-06T06:54:30;2.30;;;0.63;;
19543;SDS011;9917;51.256;7.152;2023-08-06T06:56:56;1.77;;;1.00;;
19543;SDS011;9917;51.256;7.152;2023-08-06T06:59:22;3.53;;;0.93;;
19543;SDS011;9917;51.256;7.152;2023-08-06T07:01:49;1.17;;;0.60;;
19543;SDS011;9917;51.256;7.152;2023-08-06T07:04:15;2.45;;;1.00;;
19543;SDS011;9917;51.256;7.152;2023-08-06T07:06:41;2.33;;;0.57;;
19543;SDS011;9917;51.256;7.152;2023-08-06T07:09:07;0.88;;;0.57;;
19543;SDS011;9917;51.256;7.152;2023-08-06T07:11:33;0.82;;;0.30;;
19543;SDS011;9917;51.256;7.152;2023-08-06T07:13:59;1.25;;;0.50;;
19543;SDS011;9917;51.256;7.152;2023-08-06T07:16:25;1.35;;;0.43;;
19543;SDS011;9917;51.256;7.152;2023-08-06T07:18:52;1.67;;;0.30;;
19543;SDS011;9917;51.256;7.152;2023-08-06T07:21:19;3.70;;;0.93;;
19543;SDS011;9917;51.256;7.152;2023-08-06T07:23:45;0.65;;;0.32;;
19543;SDS011;9917;51.256;7.152;2023-08-06T07:26:11;0.50;;;0.20;;
19543;SDS011;9917;51.256;7.152;2023-08-06T07:28:37;0.80;;;0.20;;
19543;SDS011;9917;51.256;7.152;2023-08-06T07:31:03;0.75;;;0.30;;
19543;SDS011;9917;51.256;7.152;2023-08-06T07:33:29;0.80;;;0.20;;
19543;SDS011;9917;51.256;7.152;2023-08-06T07:35:56;0.68;;;0.28;;
19543;SDS011;9917;51.256;7.152;2023-08-06T07:38:22;1.02;;;0.50;;
19543;SDS011;9917;51.256;7.152;2023-08-06T07:40:47;0.85;;;0.20;;
19543;SDS011;9917;51.256;7.152;2023-08-06T07:43:13;1.75;;;0.32;;
19543;SDS011;9917;51.256;7.152;2023-08-06T07:45:39;1.40;;;0.50;;
19543;SDS011;9917;51.256;7.152;2023-08-06T07:48:05;0.88;;;0.20;;
19543;SDS011;9917;51.256;7.152;2023-08-06T07:50:31;0.32;;;0.20;;
19543;SDS011;9917;51.256;7.152;2023-08-06T07:52:59;0.80;;;0.40;;
19543;SDS011;9917;51.256;7.152;2023-08-06T07:55:25;2.40;;;0.57;;
19543;SDS011;9917;51.256;7.152;2023-08-06T07:57:51;1.15;;;0.50;;
19543;SDS011;9917;51.256;7.152;2023-08-06T08:00:17;2.47;;;0.68;;
19543;SDS011;9917;51.256;7.152;2023-08-06T08:02:43;2.90;;;0.68;;
19543;SDS011;9917;51.256;7.152;2023-08-06T08:05:09;0.93;;;0.38;;
19543;SDS011;9917;51.256;7.152;2023-08-06T08:07:35;1.00;;;0.30;;
19543;SDS011;9917;51.256;7.152;2023-08-06T08:10:02;0.80;;;0.30;;
19543;SDS011;9917;51.256;7.152;2023-08-06T08:12:27;1.15;;;0.57;;
19543;SDS011;9917;51.256;7.152;2023-08-06T08:14:53;1.27;;;0.52;;
19543;SDS011;9917;51.256;7.152;2023-08-06T08:17:19;0.75;;;0.40;;
19543;SDS011;9917;51.256;7.152;2023-08-06T08:19:45;0.45;;;0.25;;
19543;SDS011;9917;51.256;7.152;2023-08-06T08:22:11;0.50;;;0.30;;
19543;SDS011;9917;51.256;7.152;2023-08-06T08:24:37;0.40;;;0.30;;
19543;SDS011;9917;51.256;7.152;2023-08-06T08:27:04;1.55;;;0.30;;
19543;SDS011;9917;51.256;7.152;2023-08-06T08:29:30;0.65;;;0.30;;
19543;SDS011;9917;51.256;7.152;2023-08-06T08:31:56;0.52;;;0.30;;
19543;SDS011;9917;51.256;7.152;2023-08-06T08:34:22;0.90;;;0.20;;
19543;SDS011;9917;51.256;7.152;2023-08-06T08:36:48;0.65;;;0.20;;
19543;SDS011;9917;51.256;7.152;2023-08-06T08:39:14;1.42;;;0.30;;
19543;SDS011;9917;51.256;7.152;2023-08-06T08:41:40;0.40;;;0.20;;
19543;SDS011;9917;51.256;7.152;2023-08-06T08:44:08;0.38;;;0.10;;
19543;SDS011;9917;51.256;7.152;2023-08-06T08:46:35;0.70;;;0.38;;
19543;SDS011;9917;51.256;7.152;2023-08-06T08:49:02;0.82;;;0.30;;
19543;SDS011;9917;51.256;7.152;2023-08-06T08:51:28;0.38;;;0.20;;
19543;SDS011;9917;51.256;7.152;2023-08-06T08:53:55;0.73;;;0.30;;
19543;SDS011;9917;51.256;7.152;2023-08-06T08:56:21;1.35;;;0.47;;
19543;SDS011;9917;51.256;7.152;2023-08-06T08:58:47;0.30;;;0.20;;
19543;SDS011;9917;51.256;7.152;2023-08-06T09:01:14;1.10;;;0.22;;
19543;SDS011;9917;51.256;7.152;2023-08-06T09:03:40;2.35;;;0.40;;
19543;SDS011;9917;51.256;7.152;2023-08-06T09:06:06;1.17;;;0.40;;
19543;SDS011;9917;51.256;7.152;2023-08-06T09:08:34;0.40;;;0.20;;
19543;SDS011;9917;51.256;7.152;2023-08-06T09:11:04;0.68;;;0.25;;
19543;SDS011;9917;51.256;7.152;2023-08-06T09:13:33;2.22;;;0.77;;
19543;SDS011;9917;51.256;7.152;2023-08-06T09:16:01;1.02;;;0.30;;
19543;SDS011;9917;51.256;7.152;2023-08-06T09:18:28;1.35;;;0.47;;
19543;SDS011;9917;51.256;7.152;2023-08-06T09:20:55;0.73;;;0.30;;
19543;SDS011;9917;51.256;7.152;2023-08-06T09:23:22;1.20;;;0.40;;
19543;SDS011;9917;51.256;7.152;2023-08-06T09:25:52;1.40;;;0.40;;
19543;SDS011;9917;51.256;7.152;2023-08-06T09:28:18;1.95;;;0.52;;
19543;SDS011;9917;51.256;7.152;2023-08-06T09:30:45;1.75;;;0.63;;
19543;SDS011;9917;51.256;7.152;2023-08-06T09:33:14;2.03;;;0.50;;
19543;SDS011;9917;51.256;7.152;2023-08-06T09:35:45;2.63;;;0.60;;
19543;SDS011;9917;51.256;7.152;2023-08-06T09:38:11;1.80;;;0.57;;
19543;SDS011;9917;51.256;7.152;2023-08-06T09:40:37;2.13;;;0.80;;
19543;SDS011;9917;51.256;7.152;2023-08-06T09:43:03;2.05;;;0.70;;
19543;SDS011;9917;51.256;7.152;2023-08-06T09:45:30;1.38;;;0.85;;
19543;SDS011;9917;51.256;7.152;2023-08-06T09:47:57;2.13;;;0.90;;
19543;SDS011;9917;51.256;7.152;2023-08-06T09:50:23;1.60;;;0.70;;
19543;SDS011;9917;51.256;7.152;2023-08-06T09:52:55;2.67;;;1.20;;
19543;SDS011;9917;51.256;7.152;2023-08-06T09:55:21;3.88;;;1.40;;
19543;SDS011;9917;51.256;7.152;2023-08-06T09:57:49;2.40;;;1.10;;
19543;SDS011;9917;51.256;7.152;2023-08-06T10:00:15;2.30;;;1.27;;
19543;SDS011;9917;51.256;7.152;2023-08-06T10:02:41;2.75;;;1.20;;
19543;SDS011;9917;51.256;7.152;2023-08-06T10:05:09;2.08;;;1.30;;
19543;SDS011;9917;51.256;7.152;2023-08-06T10:07:35;3.60;;;0.85;;
19543;SDS011;9917;51.256;7.152;2023-08-06T10:10:03;2.83;;;0.90;;
19543;SDS011;9917;51.256;7.152;2023-08-06T10:12:29;2.80;;;1.10;;
19543;SDS011;9917;51.256;7.152;2023-08-06T10:14:59;3.17;;;1.20;;
19543;SDS011;9917;51.256;7.152;2023-08-06T10:17:28;2.70;;;1.38;;
19543;SDS011;9917;51.256;7.152;2023-08-06T10:19:54;2.78;;;1.23;;
19543;SDS011;9917;51.256;7.152;2023-08-06T10:22:20;2.65;;;1.23;;
19543;SDS011;9917;51.256;7.152;2023-08-06T10:24:46;3.35;;;1.90;;
19543;SDS011;9917;51.256;7.152;2023-08-06T10:27:15;5.40;;;2.60;;
19543;SDS011;9917;51.256;7.152;2023-08-06T10:29:45;5.38;;;1.80;;
19543;SDS011;9917;51.256;7.152;2023-08-06T10:32:11;3.40;;;1.60;;
19543;SDS011;9917;51.256;7.152;2023-08-06T10:37:22;6.60;;;3.78;;
19543;SDS011;9917;51.256;7.152;2023-08-06T10:39:48;6.75;;;4.40;;
19543;SDS011;9917;51.256;7.152;2023-08-06T10:42:20;6.32;;;3.78;;
19543;SDS011;9917;51.256;7.152;2023-08-06T10:47:37;5.30;;;3.47;;
19543;SDS011;9917;51.256;7.152;2023-08-06T10:50:03;8.07;;;4.43;;
19543;SDS011;9917;51.256;7.152;2023-08-06T10:52:30;8.48;;;3.90;;
19543;SDS011;9917;51.256;7.152;2023-08-06T10:54:56;6.15;;;4.35;;
19543;SDS011;9917;51.256;7.152;2023-08-06T10:57:23;9.57;;;4.40;;
19543;SDS011;9917;51.256;7.152;2023-08-06T10:59:49;7.53;;;4.85;;
19543;SDS011;9917;51.256;7.152;2023-08-06T11:02:15;7.15;;;3.58;;
19543;SDS011;9917;51.256;7.152;2023-08-06T11:04:41;2.95;;;2.30;;
19543;SDS011;9917;51.256;7.152;2023-08-06T11:07:07;1.40;;;0.80;;
19543;SDS011;9917;51.256;7.152;2023-08-06T11:09:33;2.53;;;0.82;;
19543;SDS011;9917;51.256;7.152;2023-08-06T11:11:59;1.05;;;0.50;;
19543;SDS011;9917;51.256;7.152;2023-08-06T11:14:26;1.10;;;0.40;;
19543;SDS011;9917;51.256;7.152;2023-08-06T11:16:52;2.83;;;0.50;;
19543;SDS011;9917;51.256;7.152;2023-08-06T11:19:18;2.58;;;0.80;;
19543;SDS011;9917;51.256;7.152;2023-08-06T11:21:44;2.92;;;0.93;;
19543;SDS011;9917;51.256;7.152;2023-08-06T11:24:10;1.63;;;0.70;;
19543;SDS011;9917;51.256;7.152;2023-08-06T11:26:36;1.20;;;0.70;;
19543;SDS011;9917;51.256;7.152;2023-08-06T11:29:02;0.90;;;0.40;;
19543;SDS011;9917;51.256;7.152;2023-08-06T11:31:29;1.55;;;0.80;;
19543;SDS011;9917;51.256;7.152;2023-08-06T11:33:55;3.10;;;1.50;;
19543;SDS011;9917;51.256;7.152;2023-08-06T11:36:28;1.02;;;0.50;;
19543;SDS011;9917;51.256;7.152;2023-08-06T11:38:54;1.00;;;0.50;;
19543;SDS011;9917;51.256;7.152;2023-08-06T11:41:20;2.53;;;1.00;;
19543;SDS011;9917;51.256;7.152;2023-08-06T11:43:46;1.75;;;0.80;;
19543;SDS011;9917;51.256;7.152;2023-08-06T11:46:12;0.60;;;0.32;;
19543;SDS011;9917;51.256;7.152;2023-08-06T11:48:51;0.65;;;0.30;;
19543;SDS011;9917;51.256;7.152;2023-08-06T11:51:17;1.40;;;0.57;;
19543;SDS011;9917;51.256;7.152;2023-08-06T11:53:46;1.77;;;0.40;;
19543;SDS011;9917;51.256;7.152;2023-08-06T11:56:13;1.67;;;0.73;;
19543;SDS011;9917;51.256;7.152;2023-08-06T11:58:40;1.58;;;0.50;;
19543;SDS011;9917;51.256;7.152;2023-08-06T12:01:06;1.33;;;0.82;;
19543;SDS011;9917;51.256;7.152;2023-08-06T12:03:32;1.40;;;0.82;;
19543;SDS011;9917;51.256;7.152;2023-08-06T12:05:59;1.48;;;0.70;;
19543;SDS011;9917;51.256;7.152;2023-08-06T12:08:26;2.65;;;1.83;;
19543;SDS011;9917;51.256;7.152;2023-08-06T12:10:52;2.60;;;1.33;;
19543;SDS011;9917;51.256;7.152;2023-08-06T12:13:17;2.22;;;0.80;;
19543;SDS011;9917;51.256;7.152;2023-08-06T12:15:43;1.27;;;0.85;;
19543;SDS011;9917;51.256;7.152;2023-08-06T12:18:10;2.10;;;1.13;;
19543;SDS011;9917;51.256;7.152;2023-08-06T12:20:36;2.28;;;1.30;;
19543;SDS011;9917;51.256;7.152;2023-08-06T12:23:03;2.15;;;1.20;;
19543;SDS011;9917;51.256;7.152;2023-08-06T12:25:29;2.97;;;1.30;;
19543;SDS011;9917;51.256;7.152;2023-08-06T12:27:55;2.10;;;1.35;;
19543;SDS011;9917;51.256;7.152;2023-08-06T12:30:23;2.55;;;1.48;;
19543;SDS011;9917;51.256;7.152;2023-08-06T12:32:49;2.85;;;1.42;;
19543;SDS011;9917;51.256;7.152;2023-08-06T12:35:15;3.00;;;1.90;;
19543;SDS011;9917;51.256;7.152;2023-08-06T12:37:41;3.95;;;1.20;;
19543;SDS011;9917;51.256;7.152;2023-08-06T12:40:08;2.60;;;0.95;;
19543;SDS011;9917;51.256;7.152;2023-08-06T12:42:34;2.22;;;1.30;;
19543;SDS011;9917;51.256;7.152;2023-08-06T12:45:01;2.08;;;1.20;;
19543;SDS011;9917;51.256;7.152;2023-08-06T12:47:27;1.20;;;0.75;;
19543;SDS011;9917;51.256;7.152;2023-08-06T12:49:53;1.73;;;1.10;;
19543;SDS011;9917;51.256;7.152;2023-08-06T12:52:19;2.38;;;0.80;;
19543;SDS011;9917;51.256;7.152;2023-08-06T12:54:45;1.40;;;0.80;;
19543;SDS011;9917;51.256;7.152;2023-08-06T12:57:12;2.33;;;0.50;;
19543;SDS011;9917;51.256;7.152;2023-08-06T12:59:38;1.75;;;0.80;;
19543;SDS011;9917;51.256;7.152;2023-08-06T13:02:04;2.75;;;1.05;;
19543;SDS011;9917;51.256;7.152;2023-08-06T13:04:30;1.35;;;0.70;;
19543;SDS011;9917;51.256;7.152;2023-08-06T13:06:56;1.88;;;0.60;;
19543;SDS011;9917;51.256;7.152;2023-08-06T13:09:22;1.48;;;1.02;;
19543;SDS011;9917;51.256;7.152;2023-08-06T13:11:47;3.08;;;1.83;;
19543;SDS011;9917;51.256;7.152;2023-08-06T13:14:15;2.85;;;2.00;;
19543;SDS011;9917;51.256;7.152;2023-08-06T13:16:41;3.78;;;2.05;;
19543;SDS011;9917;51.256;7.152;2023-08-06T13:19:07;3.13;;;1.83;;
19543;SDS011;9917;51.256;7.152;2023-08-06T13:21:34;3.45;;;1.63;;
19543;SDS011;9917;51.256;7.152;2023-08-06T13:24:01;4.78;;;2.15;;
19543;SDS011;9917;51.256;7.152;2023-08-06T13:26:27;7.40;;;4.25;;
19543;SDS011;9917;51.256;7.152;2023-08-06T13:28:53;5.55;;;3.22;;
19543;SDS011;9917;51.256;7.152;2023-08-06T13:31:20;3.42;;;2.40;;
19543;SDS011;9917;51.256;7.152;2023-08-06T13:33:46;4.10;;;2.65;;
19543;SDS011;9917;51.256;7.152;2023-08-06T13:36:12;4.20;;;3.13;;
19543;SDS011;9917;51.256;7.152;2023-08-06T13:38:38;4.65;;;3.22;;
19543;SDS011;9917;51.256;7.152;2023-08-06T13:41:03;6.30;;;3.60;;
19543;SDS011;9917;51.256;7.152;2023-08-06T13:43:29;5.60;;;3.33;;
19543;SDS011;9917;51.256;7.152;2023-08-06T13:45:57;4.78;;;2.55;;
19543;SDS011;9917;51.256;7.152;2023-08-06T13:48:24;3.33;;;2.05;;
19543;SDS011;9917;51.256;7.152;2023-08-06T13:50:50;6.28;;;3.40;;
19543;SDS011;9917;51.256;7.152;2023-08-06T13:53:16;5.40;;;3.13;;
19543;SDS011;9917;51.256;7.152;2023-08-06T13:55:42;4.63;;;2.70;;
19543;SDS011;9917;51.256;7.152;2023-08-06T13:58:08;8.88;;;4.28;;
19543;SDS011;9917;51.256;7.152;2023-08-06T14:00:35;5.78;;;3.42;;
19543;SDS011;9917;51.256;7.152;2023-08-06T14:03:01;7.72;;;3.63;;
19543;SDS011;9917;51.256;7.152;2023-08-06T14:05:28;9.93;;;5.82;;
19543;SDS011;9917;51.256;7.152;2023-08-06T14:07:54;10.73;;;5.47;;
19543;SDS011;9917;51.256;7.152;2023-08-06T14:10:20;6.03;;;3.72;;
19543;SDS011;9917;51.256;7.152;2023-08-06T14:12:46;11.82;;;6.60;;
19543;SDS011;9917;51.256;7.152;2023-08-06T14:15:12;7.25;;;4.05;;
19543;SDS011;9917;51.256;7.152;2023-08-06T14:17:38;8.15;;;4.28;;
19543;SDS011;9917;51.256;7.152;2023-08-06T14:20:04;4.45;;;2.88;;
19543;SDS011;9917;51.256;7.152;2023-08-06T14:22:32;5.00;;;2.60;;
19543;SDS011;9917;51.256;7.152;2023-08-06T14:24:58;3.78;;;2.05;;
19543;SDS011;9917;51.256;7.152;2023-08-06T14:27:24;11.23;;;4.93;;
19543;SDS011;9917;51.256;7.152;2023-08-06T14:29:50;8.68;;;4.30;;
19543;SDS011;9917;51.256;7.152;2023-08-06T14:32:16;6.03;;;3.58;;
19543;SDS011;9917;51.256;7.152;2023-08-06T14:34:42;5.65;;;2.97;;
19543;SDS011;9917;51.256;7.152;2023-08-06T14:37:08;5.00;;;2.58;;
19543;SDS011;9917;51.256;7.152;2023-08-06T14:39:35;3.95;;;2.00;;
19543;SDS011;9917;51.256;7.152;2023-08-06T14:42:01;5.03;;;3.10;;
19543;SDS011;9917;51.256;7.152;2023-08-06T14:44:28;3.83;;;2.53;;
19543;SDS011;9917;51.256;7.152;2023-08-06T14:46:54;5.55;;;2.90;;
19543;SDS011;9917;51.256;7.152;2023-08-06T14:49:20;9.02;;;3.90;;
19543;SDS011;9917;51.256;7.152;2023-08-06T14:51:46;7.80;;;4.63;;
19543;SDS011;9917;51.256;7.152;2023-08-06T14:54:11;5.28;;;2.63;;
19543;SDS011;9917;51.256;7.152;2023-08-06T14:56:39;3.92;;;1.95;;
19543;SDS011;9917;51.256;7.152;2023-08-06T14:59:04;3.65;;;2.25;;
19543;SDS011;9917;51.256;7.152;2023-08-06T15:01:30;6.72;;;4.25;;